Terminal Aerodrome Forecast
Issued by NWS Nashville, TN

Home | Current Version | Previous Version | Text Only | Print | Product List | Glossary On
Versions: 1 2 3 4 5 6 7 8 9 10 11 12 13 14 15 16 17 18 19 20 21 22 23 24 25 26
000
FTUS44 KOHX 301223 AAA
TAFBNA
TAF AMD
KBNA 301223Z 3012/0112 VRB05KT 6SM -RA BKN050 OVC100
     FM301600 16007KT 6SM -SHRA VCTS SCT025CB OVC050
     FM302000 17006KT P6SM BKN050
     FM010900 18005KT P6SM OVC015=

USA.gov is the U.S. government's official web portal to all federal, state and local government web resources and services.